Alma, WI (54610)

9:39 AM CDT on May 03, 2015 (GMT -0500)
MNDOT | | Change Station
CLOSE
Current Station
Personal Weather Station
Location: Kellogg, MN
Elevation: 741 ft
Nearby Weather Stations

Elev 741 ft 44.28 °N, 91.99 °W | Updated 24 minutes ago

Clear
Clear
65 °F
Feels Like 65 °F
N
6
Wind Variable Wind from South
Gusts 11.0 mph

Today
High -- | Low -- °F
--% Chance of Precip.
Yesterday
High -- | Low -- °F
Precip. -- in
5:56 AM 8:13 PM
Full, 100% visible
Pressure 29.82 in
Visibility 10.0 miles
Clouds Clear
Dew Point 52 °F
Humidity 61%
Rainfall in
Snow Depth Not available.
UV 5 out of 12
Pollen 9.90 out of 12
Air Quality Not available.
Flu Activity Local Activity
METAR KONA 031433Z AUTO 17003KT 10SM CLR 17/10 A2982 RMK AO2

More Conditions Fewer Conditions

Pressure 29.82 in
Visibility 10.0 miles
Clouds Clear
Dew Point 52 °F
Humidity 61%
Rainfall in
Snow Depth Not available.
UV 5 out of 12
Pollen 9.90 out of 12
Air Quality Not available.
Flu Activity Local Activity
METAR KONA 031433Z AUTO 17003KT 10SM CLR 17/10 A2982 RMK AO2

More Conditions Fewer Conditions

Nepal has a long way to go to dig out and rebuild from a devastating earthquake. We have teamed up with several charities and organizations to make contributing to the relief effort as easy as possible.
How you can help: Portlight Strategies | Red Cross

10-Day Weather Forecast

Almanac

Astronomy

May. 03, 2015 Rise Set
Actual Time
Civil Twilight
Nautical Twilight
Astronomical Twilight
Moon
Length of Visible Light
Length of Day
Tomorrow will be .
, % of the Moon is Illuminated

Today's Extremes

State Highs State Lows

Community

WunderPhotos

Upload Photos

1,818,245 photos uploaded!

WunderBlogs® & News

Nearby

Air Quality

  Air Quality AQ Index Pollutant
Not available.

Snow Depth

Station Depth Elevation

Earthquake Activity

City Distance Mag. Time & Date
Minimum magnitude displayed is 2.5.

Coastal Water Temperatures

Place Temperature

Stations

Nearby Weather Stations

Station Location Temp. Windchill Dew Point Humidity Wind Precip. Elev Updated Type